Atlantic - Newfoundland: Past 24 Hour Conditions

 

Natashquan Airport

10:00 PM EDT 29 July 2014
This table is a summary of hourly weather conditions for the past 24 hours.
Date / Time
(EDT)
Wind(knots) Conditions Visibility(km) Pressure(kPa) Air tempC) Relative humidity(%) Dew pointC) Humidex
29 July 2014
22:00 S 13 Mostly Cloudy 16 100.9 19 87 17 *
21:00 SSE 12 Mist 10 100.8 18 91 16 *
20:00 SSE 11 gust 16 Mainly Clear 13 100.8 18 90 17 *
19:00 SSE 11 gust 16 Cloudy 11 100.8 19 90 17 *
18:00 SSE 13 gust 18 Cloudy 13 100.8 20 88 18 *
17:00 SSE 14 gust 20 Mainly Sunny 16 100.7 21 83 18 27
16:00 SSE 18 Mostly Cloudy 16 100.7 22 80 18 28
15:00 SSE 10 gust 20 Cloudy 13 100.7 21 85 18 27
14:00 S 17 gust 22 Mainly Sunny 16 100.6 22 80 18 28
13:00 S 13 gust 19 Cloudy 15 100.6 22 83 19 28
12:00 SSE 10 gust 20 Mist 10 100.6 20 92 18 *
11:00 SSE 16 gust 21 Mist 8 100.6 19 96 18 *
10:00 SSE 15 gust 20 Mist 5 100.6 18 97 18 *
9:00 SE 13 gust 22 Light Rain 3 100.6 18 97 17 *
8:00 N/A N/A N/A N/A N/A N/A N/A *
7:00 ESE 14 gust 19 Mist 4 100.7 17 98 17 *
6:00 ESE 12 gust 18 Light Rain 1 100.7 17 98 17 *
5:00 ESE 13 gust 19 Light Rain 1 100.7 17 98 17 *
4:00 SE 13 gust 20 Light Rain 1 100.7 17 98 17 *
3:00 SE 18 gust 26 Light Rain 1 100.8 17 98 17 *
2:00 SE 18 gust 24 Light Rain 2 100.9 17 98 17 *
1:00 SE 19 Light Rain 2 100.9 17 98 17 *
0:00 SE 17 gust 23 Light Rain 1 101.0 17 98 17 *
28 July 2014
23:00 SE 15 gust 23 Light Rain 1 101.0 17 98 17 *
22:00 SSE 14 gust 24 Light Rain 1 101.0 17 98 17 *
 
Map of Atlantic - Newfoundland marine weather areas Southwestern Grand Banks - 44138 Banquereau - 44139 Tail of the Bank - 44140 Nickerson Bank - 44251 Northeast Burgeo Bank - 44255 Blanc-Sablon Airport Cap Whittle Chevery Natashquan Airport Heath Point Miscou Island Grand Étang Ingonish Beach North Mountain St.Paul Island J.A. Douglas McCurdy Sydney Airport Charlottetown Airport East Point North Cape Argentia Bonavista Burgeo Cape Race Corner Brook Daniel's Harbour Englee Ferolle Point La Scie Port aux Basques Rocky Harbour Sagona Island St. Anthony Airport St. John's Int'l Airport St. Lawrence Stephenville Airport Twillingate Winterland Wreckhouse Cartwright Airport Mary's Harbour Grates Cove Pool's Island Marticot Island Long Pond Îles de la Madeleine Airport
Legend: buoyBuoy land stationLand Station